sensor_id;sensor_type;location;lat;lon;timestamp;pressure;altitude;pressure_sealevel;temperature;humidity
75166;BME280;63747;48.042;10.088;2023-03-01T00:01:47;95680.44;;;-1.66;65.94
75166;BME280;63747;48.042;10.088;2023-03-01T00:04:48;95669.69;;;-1.60;65.78
75166;BME280;63747;48.042;10.088;2023-03-01T00:07:52;95673.13;;;-1.60;65.92
75166;BME280;63747;48.042;10.088;2023-03-01T00:14:12;95660.50;;;-1.66;66.10
75166;BME280;63747;48.042;10.088;2023-03-01T00:17:13;95657.06;;;-1.66;66.03
75166;BME280;63747;48.042;10.088;2023-03-01T00:20:14;95669.72;;;-1.76;66.43
75166;BME280;63747;48.042;10.088;2023-03-01T00:23:15;95662.22;;;-1.81;66.40
75166;BME280;63747;48.042;10.088;2023-03-01T00:26:16;95655.69;;;-1.88;66.64
75166;BME280;63747;48.042;10.088;2023-03-01T00:29:17;95653.94;;;-1.87;66.67
75166;BME280;63747;48.042;10.088;2023-03-01T00:32:18;95653.34;;;-1.92;66.96
75166;BME280;63747;48.042;10.088;2023-03-01T00:35:19;95646.72;;;-1.98;67.06
75166;BME280;63747;48.042;10.088;2023-03-01T00:38:19;95648.34;;;-1.96;67.08
75166;BME280;63747;48.042;10.088;2023-03-01T00:41:21;95638.78;;;-1.95;67.19
75166;BME280;63747;48.042;10.088;2023-03-01T00:44:26;95646.13;;;-1.87;66.91
75166;BME280;63747;48.042;10.088;2023-03-01T00:47:29;95639.06;;;-1.85;66.85
75166;BME280;63747;48.042;10.088;2023-03-01T00:50:30;95645.69;;;-1.80;67.03
75166;BME280;63747;48.042;10.088;2023-03-01T00:53:30;95637.44;;;-1.72;66.88
75166;BME280;63747;48.042;10.088;2023-03-01T00:56:32;95634.03;;;-1.73;66.84
75166;BME280;63747;48.042;10.088;2023-03-01T00:59:32;95627.31;;;-1.77;66.58
75166;BME280;63747;48.042;10.088;2023-03-01T01:02:33;95622.06;;;-1.75;66.84
75166;BME280;63747;48.042;10.088;2023-03-01T01:05:34;95622.78;;;-1.73;66.82
75166;BME280;63747;48.042;10.088;2023-03-01T01:08:35;95605.78;;;-1.79;66.77
75166;BME280;63747;48.042;10.088;2023-03-01T01:11:36;95606.63;;;-1.78;66.72
75166;BME280;63747;48.042;10.088;2023-03-01T01:14:36;95605.88;;;-1.80;66.84
75166;BME280;63747;48.042;10.088;2023-03-01T01:17:37;95599.66;;;-1.78;67.10
75166;BME280;63747;48.042;10.088;2023-03-01T01:20:38;95596.81;;;-1.73;66.91
75166;BME280;63747;48.042;10.088;2023-03-01T01:23:40;95596.06;;;-1.75;66.99
75166;BME280;63747;48.042;10.088;2023-03-01T01:26:42;95581.38;;;-1.76;67.10
75166;BME280;63747;48.042;10.088;2023-03-01T01:29:42;95582.97;;;-1.74;67.03
75166;BME280;63747;48.042;10.088;2023-03-01T01:32:43;95576.66;;;-1.70;66.79
75166;BME280;63747;48.042;10.088;2023-03-01T01:35:45;95567.19;;;-1.71;66.71
75166;BME280;63747;48.042;10.088;2023-03-01T01:38:46;95570.81;;;-1.73;66.79
75166;BME280;63747;48.042;10.088;2023-03-01T01:41:47;95575.28;;;-1.75;67.15
75166;BME280;63747;48.042;10.088;2023-03-01T01:44:48;95574.50;;;-1.77;67.19
75166;BME280;63747;48.042;10.088;2023-03-01T01:47:48;95570.06;;;-1.75;67.08
75166;BME280;63747;48.042;10.088;2023-03-01T01:50:59;95562.28;;;-1.75;67.11
75166;BME280;63747;48.042;10.088;2023-03-01T01:54:00;95562.44;;;-1.78;67.22
75166;BME280;63747;48.042;10.088;2023-03-01T01:57:03;95558.09;;;-1.78;67.13
75166;BME280;63747;48.042;10.088;2023-03-01T02:00:14;95555.38;;;-1.76;67.34
75166;BME280;63747;48.042;10.088;2023-03-01T02:03:19;95555.03;;;-1.70;67.33
75166;BME280;63747;48.042;10.088;2023-03-01T02:06:29;95552.38;;;-1.69;67.17
75166;BME280;63747;48.042;10.088;2023-03-01T02:09:32;95558.47;;;-1.70;67.29
75166;BME280;63747;48.042;10.088;2023-03-01T02:12:34;95558.47;;;-1.70;67.05
75166;BME280;63747;48.042;10.088;2023-03-01T02:15:37;95557.00;;;-1.74;67.31
75166;BME280;63747;48.042;10.088;2023-03-01T02:18:40;95552.63;;;-1.73;67.29
75166;BME280;63747;48.042;10.088;2023-03-01T02:21:51;95552.25;;;-1.67;67.06
75166;BME280;63747;48.042;10.088;2023-03-01T02:31:18;95537.25;;;-1.62;66.92
75166;BME280;63747;48.042;10.088;2023-03-01T02:34:39;95538.59;;;-1.71;66.81
75166;BME280;63747;48.042;10.088;2023-03-01T02:37:41;95528.31;;;-1.72;66.74
75166;BME280;63747;48.042;10.088;2023-03-01T02:40:41;95530.72;;;-1.69;66.64
75166;BME280;63747;48.042;10.088;2023-03-01T02:43:42;95532.31;;;-1.66;66.43
75166;BME280;63747;48.042;10.088;2023-03-01T02:46:46;95533.13;;;-1.66;66.35
75166;BME280;63747;48.042;10.088;2023-03-01T02:49:47;95532.31;;;-1.66;66.60
75166;BME280;63747;48.042;10.088;2023-03-01T02:53:01;95524.59;;;-1.68;66.69
75166;BME280;63747;48.042;10.088;2023-03-01T02:56:05;95524.69;;;-1.70;66.75
75166;BME280;63747;48.042;10.088;2023-03-01T02:59:12;95531.63;;;-1.70;66.83
75166;BME280;63747;48.042;10.088;2023-03-01T03:02:22;95527.28;;;-1.70;66.84
75166;BME280;63747;48.042;10.088;2023-03-01T03:05:36;95529.81;;;-1.68;66.65
75166;BME280;63747;48.042;10.088;2023-03-01T03:08:36;95519.41;;;-1.68;66.73
75166;BME280;63747;48.042;10.088;2023-03-01T03:11:37;95514.69;;;-1.61;66.83
75166;BME280;63747;48.042;10.088;2023-03-01T03:14:40;95515.41;;;-1.59;66.56
75166;BME280;63747;48.042;10.088;2023-03-01T03:17:41;95510.22;;;-1.59;66.71
75166;BME280;63747;48.042;10.088;2023-03-01T03:20:43;95510.38;;;-1.62;66.69
75166;BME280;63747;48.042;10.088;2023-03-01T03:23:44;95513.09;;;-1.64;66.86
75166;BME280;63747;48.042;10.088;2023-03-01T03:26:45;95509.66;;;-1.64;66.81
75166;BME280;63747;48.042;10.088;2023-03-01T03:29:45;95509.28;;;-1.73;66.69
75166;BME280;63747;48.042;10.088;2023-03-01T03:32:47;95523.56;;;-1.80;67.23
75166;BME280;63747;48.042;10.088;2023-03-01T03:35:52;95527.56;;;-1.74;66.86
75166;BME280;63747;48.042;10.088;2023-03-01T03:38:52;95523.94;;;-1.72;66.84
75166;BME280;63747;48.042;10.088;2023-03-01T03:41:53;95515.66;;;-1.78;66.65
75166;BME280;63747;48.042;10.088;2023-03-01T03:44:54;95526.75;;;-1.75;66.61
75166;BME280;63747;48.042;10.088;2023-03-01T03:47:54;95515.56;;;-1.77;66.46
75166;BME280;63747;48.042;10.088;2023-03-01T03:50:56;95507.72;;;-1.75;66.47
75166;BME280;63747;48.042;10.088;2023-03-01T03:53:56;95510.38;;;-1.77;66.62
75166;BME280;63747;48.042;10.088;2023-03-01T03:56:57;95505.28;;;-1.78;66.61
75166;BME280;63747;48.042;10.088;2023-03-01T03:59:58;95509.66;;;-1.79;66.48
75166;BME280;63747;48.042;10.088;2023-03-01T04:02:59;95498.41;;;-1.79;66.61
75166;BME280;63747;48.042;10.088;2023-03-01T04:06:00;95489.06;;;-1.82;66.44
75166;BME280;63747;48.042;10.088;2023-03-01T04:09:01;95494.88;;;-1.78;66.37
75166;BME280;63747;48.042;10.088;2023-03-01T04:12:02;95493.41;;;-1.82;66.40
75166;BME280;63747;48.042;10.088;2023-03-01T04:15:05;95495.09;;;-1.81;66.24
75166;BME280;63747;48.042;10.088;2023-03-01T04:18:14;95487.19;;;-1.80;66.33
75166;BME280;63747;48.042;10.088;2023-03-01T04:21:14;95485.53;;;-1.81;66.21
75166;BME280;63747;48.042;10.088;2023-03-01T04:24:15;95474.28;;;-1.81;66.12
75166;BME280;63747;48.042;10.088;2023-03-01T04:27:16;95480.59;;;-1.85;66.26
75166;BME280;63747;48.042;10.088;2023-03-01T04:30:17;95487.34;;;-1.83;66.53
75166;BME280;63747;48.042;10.088;2023-03-01T04:33:18;95489.78;;;-1.80;66.37
75166;BME280;63747;48.042;10.088;2023-03-01T04:36:22;95482.81;;;-1.79;66.43
75166;BME280;63747;48.042;10.088;2023-03-01T04:39:23;95488.03;;;-1.79;66.26
75166;BME280;63747;48.042;10.088;2023-03-01T04:42:24;95482.81;;;-1.79;66.37
75166;BME280;63747;48.042;10.088;2023-03-01T04:45:25;95478.81;;;-1.85;66.44
75166;BME280;63747;48.042;10.088;2023-03-01T04:48:26;95479.03;;;-1.88;66.49
75166;BME280;63747;48.042;10.088;2023-03-01T04:51:27;95484.22;;;-1.88;66.45
75166;BME280;63747;48.042;10.088;2023-03-01T04:54:28;95482.63;;;-1.90;66.80
75166;BME280;63747;48.042;10.088;2023-03-01T04:57:29;95484.03;;;-1.85;66.60
75166;BME280;63747;48.042;10.088;2023-03-01T05:00:30;95471.97;;;-1.86;66.31
75166;BME280;63747;48.042;10.088;2023-03-01T05:03:30;95475.28;;;-1.84;66.49
75166;BME280;63747;48.042;10.088;2023-03-01T05:06:31;95481.41;;;-1.85;66.42
75166;BME280;63747;48.042;10.088;2023-03-01T05:09:33;95473.63;;;-1.85;66.37
75166;BME280;63747;48.042;10.088;2023-03-01T05:12:33;95469.16;;;-1.83;66.39
75166;BME280;63747;48.042;10.088;2023-03-01T05:15:34;95467.59;;;-1.85;66.38
75166;BME280;63747;48.042;10.088;2023-03-01T05:18:36;95463.44;;;-1.88;66.51
75166;BME280;63747;48.042;10.088;2023-03-01T05:21:38;95463.13;;;-1.83;66.54
75166;BME280;63747;48.042;10.088;2023-03-01T05:24:59;95462.31;;;-1.84;66.51
75166;BME280;63747;48.042;10.088;2023-03-01T05:28:02;95454.50;;;-1.84;66.53
75166;BME280;63747;48.042;10.088;2023-03-01T05:31:06;95464.06;;;-1.84;66.75
75166;BME280;63747;48.042;10.088;2023-03-01T05:34:09;95462.25;;;-1.82;66.64
75166;BME280;63747;48.042;10.088;2023-03-01T05:37:13;95461.38;;;-1.83;66.61
75166;BME280;63747;48.042;10.088;2023-03-01T05:40:19;95455.19;;;-1.80;66.50
75166;BME280;63747;48.042;10.088;2023-03-01T05:43:20;95459.63;;;-1.82;66.61
75166;BME280;63747;48.042;10.088;2023-03-01T05:46:21;95454.34;;;-1.81;66.46
75166;BME280;63747;48.042;10.088;2023-03-01T05:49:24;95457.94;;;-1.83;66.49
75166;BME280;63747;48.042;10.088;2023-03-01T05:52:26;95452.84;;;-1.85;66.43
75166;BME280;63747;48.042;10.088;2023-03-01T05:55:28;95457.22;;;-1.85;66.39
75166;BME280;63747;48.042;10.088;2023-03-01T05:58:29;95457.88;;;-1.82;66.44
75166;BME280;63747;48.042;10.088;2023-03-01T06:01:32;95454.34;;;-1.81;66.23
75166;BME280;63747;48.042;10.088;2023-03-01T06:04:32;95454.50;;;-1.84;66.19
75166;BME280;63747;48.042;10.088;2023-03-01T06:07:33;95444.41;;;-1.88;66.02
75166;BME280;63747;48.042;10.088;2023-03-01T06:10:35;95451.19;;;-1.86;66.19
75166;BME280;63747;48.042;10.088;2023-03-01T06:13:35;95451.38;;;-1.89;66.24
75166;BME280;63747;48.042;10.088;2023-03-01T06:16:36;95448.84;;;-1.90;66.24
75166;BME280;63747;48.042;10.088;2023-03-01T06:19:37;95447.00;;;-1.88;66.31
75166;BME280;63747;48.042;10.088;2023-03-01T06:22:38;95455.34;;;-1.83;66.15
75166;BME280;63747;48.042;10.088;2023-03-01T06:25:38;95450.97;;;-1.83;66.01
75166;BME280;63747;48.042;10.088;2023-03-01T06:28:39;95453.41;;;-1.80;66.08
75166;BME280;63747;48.042;10.088;2023-03-01T06:31:40;95451.84;;;-1.82;65.89
75166;BME280;63747;48.042;10.088;2023-03-01T06:34:40;95462.13;;;-1.81;65.87
75166;BME280;63747;48.042;10.088;2023-03-01T06:37:41;95446.56;;;-1.81;65.81
75166;BME280;63747;48.042;10.088;2023-03-01T06:40:42;95457.88;;;-1.82;65.82
75166;BME280;63747;48.042;10.088;2023-03-01T06:43:43;95453.69;;;-1.84;65.91
75166;BME280;63747;48.042;10.088;2023-03-01T06:46:43;95461.38;;;-1.83;65.89
75166;BME280;63747;48.042;10.088;2023-03-01T06:49:44;95454.72;;;-1.87;65.60
75166;BME280;63747;48.042;10.088;2023-03-01T06:52:45;95455.63;;;-1.88;65.88
75166;BME280;63747;48.042;10.088;2023-03-01T06:55:45;95455.63;;;-1.88;65.92
75166;BME280;63747;48.042;10.088;2023-03-01T06:58:46;95452.38;;;-1.91;65.98
75166;BME280;63747;48.042;10.088;2023-03-01T07:01:47;95451.38;;;-1.89;65.89
75166;BME280;63747;48.042;10.088;2023-03-01T07:04:51;95461.09;;;-1.78;65.85
75166;BME280;63747;48.042;10.088;2023-03-01T07:07:53;95462.78;;;-1.77;65.80
75166;BME280;63747;48.042;10.088;2023-03-01T07:10:57;95463.97;;;-1.83;65.78
75166;BME280;63747;48.042;10.088;2023-03-01T07:13:58;95450.81;;;-1.80;65.65
75166;BME280;63747;48.042;10.088;2023-03-01T07:17:00;95452.28;;;-1.76;65.73
75166;BME280;63747;48.042;10.088;2023-03-01T07:20:00;95455.75;;;-1.75;65.60
75166;BME280;63747;48.042;10.088;2023-03-01T07:23:01;95453.97;;;-1.75;65.75
75166;BME280;63747;48.042;10.088;2023-03-01T07:26:02;95445.63;;;-1.80;65.75
75166;BME280;63747;48.042;10.088;2023-03-01T07:29:04;95445.41;;;-1.77;65.66
75166;BME280;63747;48.042;10.088;2023-03-01T07:32:06;95449.41;;;-1.85;65.83
75166;BME280;63747;48.042;10.088;2023-03-01T07:35:07;95450.16;;;-1.83;65.66
75166;BME280;63747;48.042;10.088;2023-03-01T07:38:08;95451.66;;;-1.79;65.63
75166;BME280;63747;48.042;10.088;2023-03-01T07:41:08;95444.78;;;-1.80;65.74
75166;BME280;63747;48.042;10.088;2023-03-01T07:44:09;95453.97;;;-1.75;65.57
75166;BME280;63747;48.042;10.088;2023-03-01T07:47:10;95455.81;;;-1.77;65.42
75166;BME280;63747;48.042;10.088;2023-03-01T07:50:11;95449.78;;;-1.77;65.63
75166;BME280;63747;48.042;10.088;2023-03-01T07:53:13;95442.34;;;-1.69;65.30
75166;BME280;63747;48.042;10.088;2023-03-01T07:56:15;95445.50;;;-1.64;65.13
75166;BME280;63747;48.042;10.088;2023-03-01T07:59:17;95433.91;;;-1.58;65.25
75166;BME280;63747;48.042;10.088;2023-03-01T08:02:18;95436.13;;;-1.52;65.03
75166;BME280;63747;48.042;10.088;2023-03-01T08:05:19;95429.53;;;-1.58;64.83
75166;BME280;63747;48.042;10.088;2023-03-01T08:08:22;95425.84;;;-1.54;64.75
75166;BME280;63747;48.042;10.088;2023-03-01T08:11:22;95428.44;;;-1.54;64.75
75166;BME280;63747;48.042;10.088;2023-03-01T08:14:24;95430.66;;;-1.48;65.03
75166;BME280;63747;48.042;10.088;2023-03-01T08:17:24;95432.13;;;-1.44;64.81
75166;BME280;63747;48.042;10.088;2023-03-01T08:20:25;95433.91;;;-1.44;64.69
75166;BME280;63747;48.042;10.088;2023-03-01T08:23:26;95433.34;;;-1.49;64.45
75166;BME280;63747;48.042;10.088;2023-03-01T08:26:26;95430.66;;;-1.48;64.72
75166;BME280;63747;48.042;10.088;2023-03-01T08:29:27;95430.47;;;-1.45;64.43
75166;BME280;63747;48.042;10.088;2023-03-01T08:32:28;95420.53;;;-1.52;64.41
75166;BME280;63747;48.042;10.088;2023-03-01T08:35:28;95417.56;;;-1.46;64.41
75166;BME280;63747;48.042;10.088;2023-03-01T08:38:29;95419.50;;;-1.50;64.27
75166;BME280;63747;48.042;10.088;2023-03-01T08:41:30;95424.44;;;-1.45;64.21
75166;BME280;63747;48.042;10.088;2023-03-01T08:44:31;95429.16;;;-1.52;64.20
75166;BME280;63747;48.042;10.088;2023-03-01T08:47:32;95425.47;;;-1.48;64.29
75166;BME280;63747;48.042;10.088;2023-03-01T08:50:33;95426.94;;;-1.44;64.29
75166;BME280;63747;48.042;10.088;2023-03-01T08:53:34;95423.84;;;-1.36;64.02
75166;BME280;63747;48.042;10.088;2023-03-01T08:56:35;95416.69;;;-1.32;64.08
75166;BME280;63747;48.042;10.088;2023-03-01T08:59:35;95404.97;;;-1.25;63.63
75166;BME280;63747;48.042;10.088;2023-03-01T09:02:37;95418.53;;;-1.20;63.79
75166;BME280;63747;48.042;10.088;2023-03-01T09:05:38;95414.28;;;-1.21;63.57
75166;BME280;63747;48.042;10.088;2023-03-01T09:08:41;95411.47;;;-1.18;63.57
75166;BME280;63747;48.042;10.088;2023-03-01T09:11:44;95405.22;;;-1.16;63.63
75166;BME280;63747;48.042;10.088;2023-03-01T09:14:46;95407.09;;;-1.18;63.67
75166;BME280;63747;48.042;10.088;2023-03-01T09:17:46;95396.25;;;-1.24;63.82
75166;BME280;63747;48.042;10.088;2023-03-01T09:20:47;95405.44;;;-1.19;63.87
75166;BME280;63747;48.042;10.088;2023-03-01T09:23:48;95403.47;;;-1.15;63.72
75166;BME280;63747;48.042;10.088;2023-03-01T09:26:50;95393.06;;;-1.15;63.64
75166;BME280;63747;48.042;10.088;2023-03-01T09:29:53;95393.81;;;-1.13;63.63
75166;BME280;63747;48.042;10.088;2023-03-01T09:32:56;95387.34;;;-1.20;63.78
75166;BME280;63747;48.042;10.088;2023-03-01T09:35:59;95389.34;;;-1.11;63.72
75166;BME280;63747;48.042;10.088;2023-03-01T09:39:01;95395.25;;;-1.09;63.89
75166;BME280;63747;48.042;10.088;2023-03-01T09:42:03;95397.88;;;-1.09;64.19
75166;BME280;63747;48.042;10.088;2023-03-01T09:45:07;95396.09;;;-1.08;63.87
75166;BME280;63747;48.042;10.088;2023-03-01T09:48:20;95392.00;;;-0.98;63.87
75166;BME280;63747;48.042;10.088;2023-03-01T09:51:27;95396.34;;;-0.99;63.81
75166;BME280;63747;48.042;10.088;2023-03-01T09:54:30;95392.47;;;-1.06;63.79
75166;BME280;63747;48.042;10.088;2023-03-01T10:00:43;95385.75;;;-0.96;63.89
75166;BME280;63747;48.042;10.088;2023-03-01T10:03:57;95396.06;;;-0.94;63.77
75166;BME280;63747;48.042;10.088;2023-03-01T10:10:21;95393.69;;;-0.84;63.83
75166;BME280;63747;48.042;10.088;2023-03-01T10:16:37;95381.22;;;-0.79;63.68
75166;BME280;63747;48.042;10.088;2023-03-01T10:19:42;95387.69;;;-0.72;63.75
75166;BME280;63747;48.042;10.088;2023-03-01T10:22:43;95377.47;;;-0.75;63.61
75166;BME280;63747;48.042;10.088;2023-03-01T10:29:07;95385.63;;;-0.54;63.44
75166;BME280;63747;48.042;10.088;2023-03-01T10:32:09;95375.88;;;-0.51;63.55
75166;BME280;63747;48.042;10.088;2023-03-01T10:35:26;95375.03;;;-0.51;63.54
75166;BME280;63747;48.042;10.088;2023-03-01T10:38:31;95372.84;;;-0.45;63.21
75166;BME280;63747;48.042;10.088;2023-03-01T10:41:31;95368.78;;;-0.49;63.23
75166;BME280;63747;48.042;10.088;2023-03-01T10:44:40;95377.22;;;-0.45;63.51
75166;BME280;63747;48.042;10.088;2023-03-01T10:47:41;95372.13;;;-0.34;63.23
75166;BME280;63747;48.042;10.088;2023-03-01T10:50:44;95375.88;;;-0.38;63.22
75166;BME280;63747;48.042;10.088;2023-03-01T10:53:49;95367.31;;;-0.40;63.34
75166;BME280;63747;48.042;10.088;2023-03-01T10:56:54;95369.31;;;-0.31;63.34
75166;BME280;63747;48.042;10.088;2023-03-01T11:00:25;95370.88;;;-0.28;63.27
75166;BME280;63747;48.042;10.088;2023-03-01T11:06:29;95359.94;;;-0.08;62.86
75166;BME280;63747;48.042;10.088;2023-03-01T11:09:32;95363.50;;;-0.09;62.67
75166;BME280;63747;48.042;10.088;2023-03-01T11:12:37;95363.78;;;-0.14;62.85
75166;BME280;63747;48.042;10.088;2023-03-01T11:15:39;95362.25;;;-0.16;62.75
75166;BME280;63747;48.042;10.088;2023-03-01T11:18:39;95345.38;;;-0.23;62.72
75166;BME280;63747;48.042;10.088;2023-03-01T11:24:56;95340.88;;;-0.21;62.83
75166;BME280;63747;48.042;10.088;2023-03-01T11:27:59;95338.38;;;-0.23;62.91
75166;BME280;63747;48.042;10.088;2023-03-01T11:31:05;95334.31;;;-0.14;62.89
75166;BME280;63747;48.042;10.088;2023-03-01T11:34:15;95322.84;;;0.01;62.88
75166;BME280;63747;48.042;10.088;2023-03-01T11:37:26;95322.22;;;-0.03;62.61
75166;BME280;63747;48.042;10.088;2023-03-01T11:40:43;95316.88;;;-0.01;62.77
75166;BME280;63747;48.042;10.088;2023-03-01T11:43:58;95315.53;;;0.06;62.41
75166;BME280;63747;48.042;10.088;2023-03-01T11:50:40;95306.81;;;0.31;62.15
75166;BME280;63747;48.042;10.088;2023-03-01T12:06:38;95287.00;;;0.41;61.67
75166;BME280;63747;48.042;10.088;2023-03-01T12:13:33;95278.63;;;0.49;61.40
75166;BME280;63747;48.042;10.088;2023-03-01T12:33:10;95271.06;;;0.57;61.76
75166;BME280;63747;48.042;10.088;2023-03-01T12:39:59;95240.09;;;0.76;61.56
75166;BME280;63747;48.042;10.088;2023-03-01T12:43:29;95233.22;;;0.75;61.25
75166;BME280;63747;48.042;10.088;2023-03-01T12:49:45;95231.00;;;0.82;61.49
75166;BME280;63747;48.042;10.088;2023-03-01T12:52:56;95231.91;;;0.81;61.49
75166;BME280;63747;48.042;10.088;2023-03-01T12:56:01;95235.09;;;0.73;61.56
75166;BME280;63747;48.042;10.088;2023-03-01T12:59:17;95247.75;;;0.67;61.50
75166;BME280;63747;48.042;10.088;2023-03-01T13:02:26;95239.09;;;0.66;61.70
75166;BME280;63747;48.042;10.088;2023-03-01T13:15:45;95232.53;;;1.76;59.97
75166;BME280;63747;48.042;10.088;2023-03-01T13:18:47;95225.91;;;1.72;59.32
75166;BME280;63747;48.042;10.088;2023-03-01T13:21:50;95228.03;;;1.78;59.72
75166;BME280;63747;48.042;10.088;2023-03-01T13:25:02;95228.84;;;2.01;59.26
75166;BME280;63747;48.042;10.088;2023-03-01T13:28:32;95226.25;;;1.89;59.96
75166;BME280;63747;48.042;10.088;2023-03-01T13:34:44;95231.53;;;2.33;58.59
75166;BME280;63747;48.042;10.088;2023-03-01T13:37:46;95236.91;;;2.31;58.69
75166;BME280;63747;48.042;10.088;2023-03-01T13:43:50;95235.34;;;2.72;58.00
75166;BME280;63747;48.042;10.088;2023-03-01T13:46:53;95232.09;;;2.80;57.87
75166;BME280;63747;48.042;10.088;2023-03-01T13:50:01;95232.22;;;2.78;58.01
75166;BME280;63747;48.042;10.088;2023-03-01T13:53:05;95229.16;;;2.73;57.99
75166;BME280;63747;48.042;10.088;2023-03-01T13:56:10;95233.16;;;2.77;57.87
75166;BME280;63747;48.042;10.088;2023-03-01T13:59:16;95240.06;;;2.78;57.70
75166;BME280;63747;48.042;10.088;2023-03-01T14:02:17;95243.53;;;2.79;57.99
75166;BME280;63747;48.042;10.088;2023-03-01T14:05:18;95246.25;;;2.77;57.77
75166;BME280;63747;48.042;10.088;2023-03-01T14:08:21;95245.41;;;2.88;57.87
75166;BME280;63747;48.042;10.088;2023-03-01T14:11:49;95248.88;;;3.09;57.56
75166;BME280;63747;48.042;10.088;2023-03-01T14:14:58;95241.91;;;3.19;57.30
75166;BME280;63747;48.042;10.088;2023-03-01T14:21:13;95229.56;;;3.31;57.55
75166;BME280;63747;48.042;10.088;2023-03-01T14:24:20;95227.09;;;3.30;57.37
75166;BME280;63747;48.042;10.088;2023-03-01T14:27:25;95222.34;;;3.23;57.29
75166;BME280;63747;48.042;10.088;2023-03-01T14:30:31;95212.19;;;3.30;57.01
75166;BME280;63747;48.042;10.088;2023-03-01T14:33:37;95214.25;;;3.27;57.01
75166;BME280;63747;48.042;10.088;2023-03-01T14:36:41;95213.97;;;3.30;57.08
75166;BME280;63747;48.042;10.088;2023-03-01T14:39:41;95192.50;;;3.36;56.81
75166;BME280;63747;48.042;10.088;2023-03-01T14:42:42;95178.78;;;3.43;57.04
75166;BME280;63747;48.042;10.088;2023-03-01T14:45:48;95177.63;;;3.57;56.73
75166;BME280;63747;48.042;10.088;2023-03-01T14:48:51;95166.22;;;3.68;56.53
75166;BME280;63747;48.042;10.088;2023-03-01T14:51:58;95177.00;;;3.74;56.09
75166;BME280;63747;48.042;10.088;2023-03-01T14:55:04;95175.81;;;3.58;56.35
75166;BME280;63747;48.042;10.088;2023-03-01T14:58:10;95174.91;;;3.68;56.49
75166;BME280;63747;48.042;10.088;2023-03-01T15:01:15;95162.28;;;3.52;56.55
75166;BME280;63747;48.042;10.088;2023-03-01T15:04:16;95160.22;;;3.46;56.64
75166;BME280;63747;48.042;10.088;2023-03-01T15:07:19;95155.97;;;3.55;56.78
75166;BME280;63747;48.042;10.088;2023-03-01T15:10:28;95148.25;;;3.54;56.81
75166;BME280;63747;48.042;10.088;2023-03-01T15:13:34;95152.69;;;3.63;56.71
75166;BME280;63747;48.042;10.088;2023-03-01T15:16:38;95149.06;;;3.54;56.89
75166;BME280;63747;48.042;10.088;2023-03-01T15:19:41;95146.81;;;3.49;56.97
75166;BME280;63747;48.042;10.088;2023-03-01T15:22:45;95139.94;;;3.48;57.24
75166;BME280;63747;48.042;10.088;2023-03-01T15:25:49;95143.53;;;3.57;57.23
75166;BME280;63747;48.042;10.088;2023-03-01T15:28:58;95140.25;;;3.65;57.03
75166;BME280;63747;48.042;10.088;2023-03-01T15:32:04;95147.81;;;3.58;56.97
75166;BME280;63747;48.042;10.088;2023-03-01T15:35:43;95143.75;;;3.44;56.90
75166;BME280;63747;48.042;10.088;2023-03-01T15:38:55;95144.88;;;3.21;57.33
75166;BME280;63747;48.042;10.088;2023-03-01T15:41:58;95141.84;;;3.25;57.62
75166;BME280;63747;48.042;10.088;2023-03-01T15:48:20;95156.88;;;3.23;58.12
75166;BME280;63747;48.042;10.088;2023-03-01T15:51:33;95147.81;;;3.28;57.94
75166;BME280;63747;48.042;10.088;2023-03-01T15:54:34;95143.91;;;3.22;58.13
75166;BME280;63747;48.042;10.088;2023-03-01T15:57:35;95150.13;;;3.21;58.24
75166;BME280;63747;48.042;10.088;2023-03-01T16:00:36;95154.63;;;3.19;58.34
75166;BME280;63747;48.042;10.088;2023-03-01T16:03:37;95145.31;;;3.05;58.47
75166;BME280;63747;48.042;10.088;2023-03-01T16:06:38;95155.56;;;3.08;58.82
75166;BME280;63747;48.042;10.088;2023-03-01T16:09:39;95156.44;;;2.97;58.58
75166;BME280;63747;48.042;10.088;2023-03-01T16:12:39;95149.81;;;2.93;58.82
75166;BME280;63747;48.042;10.088;2023-03-01T16:15:40;95170.25;;;3.00;58.63
75166;BME280;63747;48.042;10.088;2023-03-01T16:18:46;95166.91;;;2.97;58.71
75166;BME280;63747;48.042;10.088;2023-03-01T16:21:46;95170.50;;;2.96;59.04
75166;BME280;63747;48.042;10.088;2023-03-01T16:24:49;95168.69;;;2.97;59.00
75166;BME280;63747;48.042;10.088;2023-03-01T16:27:50;95164.09;;;2.89;59.12
75166;BME280;63747;48.042;10.088;2023-03-01T16:30:51;95170.69;;;2.84;59.27
75166;BME280;63747;48.042;10.088;2023-03-01T16:33:53;95167.09;;;2.85;59.40
75166;BME280;63747;48.042;10.088;2023-03-01T16:36:54;95170.13;;;2.80;59.54
75166;BME280;63747;48.042;10.088;2023-03-01T16:39:55;95167.53;;;2.69;59.42
75166;BME280;63747;48.042;10.088;2023-03-01T16:42:57;95175.25;;;2.70;59.52
75166;BME280;63747;48.042;10.088;2023-03-01T16:46:01;95161.34;;;2.70;59.65
75166;BME280;63747;48.042;10.088;2023-03-01T16:49:04;95172.78;;;2.69;59.39
75166;BME280;63747;48.042;10.088;2023-03-01T16:52:04;95178.28;;;2.66;59.36
75166;BME280;63747;48.042;10.088;2023-03-01T16:55:06;95183.03;;;2.61;59.45
75166;BME280;63747;48.042;10.088;2023-03-01T16:58:09;95189.59;;;2.55;59.65
75166;BME280;63747;48.042;10.088;2023-03-01T17:01:13;95183.09;;;2.50;59.57
75166;BME280;63747;48.042;10.088;2023-03-01T17:04:14;95191.56;;;2.42;59.83
75166;BME280;63747;48.042;10.088;2023-03-01T17:07:15;95187.22;;;2.31;59.95
75166;BME280;63747;48.042;10.088;2023-03-01T17:10:15;95203.63;;;2.22;60.14
75166;BME280;63747;48.042;10.088;2023-03-01T17:13:16;95200.19;;;2.10;60.01
75166;BME280;63747;48.042;10.088;2023-03-01T17:16:18;95195.91;;;2.09;60.23
75166;BME280;63747;48.042;10.088;2023-03-01T17:19:19;95196.31;;;2.05;60.25
75166;BME280;63747;48.042;10.088;2023-03-01T17:22:20;95193.22;;;2.00;60.14
75166;BME280;63747;48.042;10.088;2023-03-01T17:25:21;95202.97;;;1.98;60.22
75166;BME280;63747;48.042;10.088;2023-03-01T17:28:23;95193.00;;;1.92;60.03
75166;BME280;63747;48.042;10.088;2023-03-01T17:31:24;95212.81;;;1.83;60.04
75166;BME280;63747;48.042;10.088;2023-03-01T17:34:25;95212.59;;;1.75;60.31
75166;BME280;63747;48.042;10.088;2023-03-01T17:37:26;95202.75;;;1.78;60.58